New Creek, WV

5:50 PM EST on December 17, 2014 (GMT -0500)
Top of Knobbly Mountain | Change Station
CLOSE
Current Station
Personal Weather Station
Location: New Creek, WV
Elevation: 1745 ft
Nearby Weather Stations

Elev 1745 ft 39.35 °N, 79.01 °W | Updated 8 seconds ago

Overcast
Overcast
32.1 °F
Feels Like 25 °F
N
8.0
Wind Variable Wind from West
Gusts 8.0 mph

Today
High -- | Low -- °F
--% Chance of Precip.
Yesterday
High -- | Low -- °F
Precip. -- in
7:30 AM 4:54 PM
Waning Crescent, 19% visible
Pressure 30.07 in
Visibility 10.0 miles
Clouds Scattered Clouds 3900 ft
Overcast 4700 ft
Windchill 25 °F
Dew Point 23 °F
Humidity 70%
Rainfall 0.00 in
Snow Depth Not available.
UV 0 out of 12
Pollen .10 out of 12
Air Quality Not available.
Flu Activity Not available.
METAR KW99 172235Z AUTO 00000KT 10SM SCT039 OVC047 04/M05 A3007 RMK AO2 T00371050

More Conditions Fewer Conditions

Pressure 30.07 in
Visibility 10.0 miles
Clouds Scattered Clouds 3900 ft
Overcast 4700 ft
Windchill 25 °F
Dew Point 23 °F
Humidity 70%
Rainfall 0.00 in
Snow Depth Not available.
UV 0 out of 12
Pollen .10 out of 12
Air Quality Not available.
Flu Activity Not available.
METAR KW99 172235Z AUTO 00000KT 10SM SCT039 OVC047 04/M05 A3007 RMK AO2 T00371050

More Conditions Fewer Conditions

10-Day Weather Forecast

Almanac

Astronomy

Dec. 17, 2014 Rise Set
Actual Time
Civil Twilight
Nautical Twilight
Astronomical Twilight
Moon
Length of Visible Light
Length of Day
Tomorrow will be .
, % of the Moon is Illuminated

Today's Extremes

State Highs State Lows

Community

WunderPhotos

Upload Photos

1,778,813 photos uploaded!

WunderBlogs® & News

Nearby

Air Quality

  Air Quality AQ Index Pollutant
Not available.

Snow Depth

Station Depth Elevation

Earthquake Activity

City Distance Mag. Time & Date
Minimum magnitude displayed is 2.5.

Coastal Water Temperatures

Place Temperature

Nearby Weather Stations